Time;durP1;ratioP1;P1;durP2;ratioP2;P2;SDS_P1;SDS_P2;PMS_P1;PMS_P2;Temp;Humidity;BMP_temperature;BMP_pressure;BME280_temperature;BME280_humidity;BME280_pressure;Samples;Min_cycle;Max_cycle;Signal;HPM_P1;HPM_P2
2023/04/29 00:02:10;;;;;;;;;;;8.80;99.90;;;;;;5114933;28;20407;-75
2023/04/29 00:04:36;;;;;;;;;;;8.90;99.90;;;;;;5115965;28;19984;-75
2023/04/29 00:07:01;;;;;;;;;;;8.80;99.90;;;;;;5114809;28;19924;-75
2023/04/29 00:09:27;;;;;;;;;;;8.80;99.90;;;;;;5096732;28;19924;-75
2023/04/29 00:11:52;;;;;;;;;;;8.70;99.90;;;;;;5114867;28;21722;-75
2023/04/29 00:14:18;;;;;;;;;;;9.00;99.90;;;;;;5114796;28;19931;-76
2023/04/29 00:16:43;;;;;;;;;;;8.70;99.90;;;;;;5097487;28;19975;-75
2023/04/29 00:19:12;;;;;;;;;;;8.60;99.90;;;;;;5114881;28;20022;-75
2023/04/29 00:21:37;;;;;;;;;;;8.50;99.90;;;;;;5114209;28;19999;-76
2023/04/29 00:24:03;;;;;;;;;;;8.40;99.90;;;;;;5097006;28;19932;-76
2023/04/29 00:26:28;;;;;;;;;;;8.40;99.90;;;;;;5115316;28;19923;-76
2023/04/29 00:28:54;;;;;;;;;;;8.30;99.90;;;;;;5113959;28;19968;-76
2023/04/29 00:31:20;;;;;;;;;;;8.30;99.90;;;;;;5115279;28;19924;-76
2023/04/29 00:33:46;;;;;;;;;;;8.30;99.90;;;;;;5097122;28;19938;-76
2023/04/29 00:36:11;;;;;;;;;;;8.30;99.90;;;;;;5095689;28;19923;-76
2023/04/29 00:38:37;;;;;;;;;;;8.30;99.90;;;;;;5096551;28;19924;-76
2023/04/29 00:41:02;;;;;;;;;;;8.30;99.90;;;;;;5096055;28;20379;-76
2023/04/29 00:43:28;;;;;;;;;;;8.30;99.90;;;;;;5096742;28;19924;-76
2023/04/29 00:45:53;;;;;;;;;;;8.40;99.90;;;;;;5114431;28;19924;-76
2023/04/29 00:48:19;;;;;;;;;;;8.40;99.90;;;;;;5096140;28;19924;-76
2023/04/29 00:50:44;;;;;;;;;;;8.40;99.90;;;;;;5096529;28;19923;-76
2023/04/29 00:53:13;;;;;;;;;;;8.40;99.90;;;;;;5114390;28;20318;-76
2023/04/29 00:55:39;;;;;;;;;;;8.40;99.90;;;;;;5095681;28;19924;-76
2023/04/29 00:58:05;;;;;;;;;;;8.40;99.90;;;;;;5114302;28;19970;-76
2023/04/29 01:00:31;;;;;;;;;;;8.50;99.90;;;;;;5114151;28;20352;-76
2023/04/29 01:02:58;;;;;;;;;;;8.50;99.90;;;;;;5095282;28;19927;-76
2023/04/29 01:05:23;;;;;;;;;;;8.60;99.90;;;;;;5096199;28;20325;-77
2023/04/29 01:07:49;;;;;;;;;;;8.50;99.90;;;;;;5096108;28;19924;-76
2023/04/29 01:10:19;;;;;;;;;;;8.60;99.90;;;;;;5095037;28;19923;-76
2023/04/29 01:12:48;;;;;;;;;;;8.50;99.90;;;;;;5114223;28;19977;-76
2023/04/29 01:15:21;;;;;;;;;;;8.50;99.90;;;;;;5095953;28;19927;-76
2023/04/29 01:18:02;;;;;;;;;;;8.60;99.90;;;;;;5113523;28;19928;-76
2023/04/29 01:20:29;;;;;;;;;;;8.50;99.90;;;;;;5113866;28;19930;-76
2023/04/29 01:22:55;;;;;;;;;;;8.60;99.90;;;;;;5112432;28;19923;-76
2023/04/29 01:25:20;;;;;;;;;;;8.60;99.90;;;;;;5095284;28;20290;-76
2023/04/29 01:27:52;;;;;;;;;;;8.60;99.90;;;;;;5095709;28;19927;-76
2023/04/29 01:30:38;;;;;;;;;;;8.60;99.90;;;;;;5113474;28;19924;-76
2023/04/29 01:33:21;;;;;;;;;;;8.60;99.90;;;;;;5113866;28;19928;-76
2023/04/29 01:36:06;;;;;;;;;;;8.60;99.90;;;;;;5095400;28;20466;-76
2023/04/29 01:38:35;;;;;;;;;;;8.60;99.90;;;;;;5094804;28;19927;-76
2023/04/29 01:41:09;;;;;;;;;;;8.80;99.90;;;;;;5095614;28;19949;-76
2023/04/29 01:43:36;;;;;;;;;;;8.60;99.90;;;;;;5096079;28;20015;-76
2023/04/29 01:46:03;;;;;;;;;;;8.60;99.90;;;;;;5112277;28;19969;-76
2023/04/29 01:48:30;;;;;;;;;;;8.70;99.90;;;;;;5113568;28;20456;-76
2023/04/29 01:50:55;;;;;;;;;;;8.50;99.90;;;;;;5113384;28;19923;-76
2023/04/29 01:53:21;;;;;;;;;;;8.50;99.90;;;;;;5112917;28;19965;-76
2023/04/29 01:55:46;;;;;;;;;;;8.50;99.90;;;;;;5094947;28;19930;-76
2023/04/29 01:58:12;;;;;;;;;;;8.70;99.90;;;;;;5112813;28;20314;-75
2023/04/29 02:00:37;;;;;;;;;;;8.50;99.90;;;;;;5095287;28;20375;-76
2023/04/29 02:03:04;;;;;;;;;;;8.60;99.90;;;;;;5095347;28;19928;-76
2023/04/29 02:05:32;;;;;;;;;;;8.80;99.90;;;;;;5094464;28;19919;-75
2023/04/29 02:07:58;;;;;;;;;;;8.50;99.90;;;;;;5112646;28;19959;-76
2023/04/29 02:10:24;;;;;;;;;;;8.50;99.90;;;;;;5095567;28;20018;-76
2023/04/29 02:12:49;;;;;;;;;;;8.60;99.90;;;;;;5094495;28;19970;-76
2023/04/29 02:15:16;;;;;;;;;;;8.50;99.90;;;;;;5095237;28;19923;-76
2023/04/29 02:17:41;;;;;;;;;;;8.50;99.90;;;;;;5095431;28;19965;-75
2023/04/29 02:20:08;;;;;;;;;;;8.50;99.90;;;;;;5112668;28;19924;-75
2023/04/29 02:22:33;;;;;;;;;;;8.40;99.90;;;;;;5112959;28;20015;-76
2023/04/29 02:24:59;;;;;;;;;;;8.40;99.90;;;;;;5094235;28;19962;-76
2023/04/29 02:27:25;;;;;;;;;;;8.40;99.90;;;;;;5094395;28;20289;-76
2023/04/29 02:29:50;;;;;;;;;;;8.30;99.90;;;;;;5094988;28;19924;-75
2023/04/29 02:32:18;;;;;;;;;;;8.90;99.90;;;;;;5113344;28;19946;-75
2023/04/29 02:34:44;;;;;;;;;;;8.40;99.90;;;;;;5098044;28;19963;-76
2023/04/29 02:37:10;;;;;;;;;;;8.50;99.90;;;;;;5117135;28;20313;-75
2023/04/29 02:39:40;;;;;;;;;;;8.70;99.90;;;;;;5099328;28;19977;-75
2023/04/29 02:42:05;;;;;;;;;;;8.30;99.90;;;;;;5097883;28;19924;-75
2023/04/29 02:44:31;;;;;;;;;;;8.40;99.90;;;;;;5117595;28;19923;-75
2023/04/29 02:46:56;;;;;;;;;;;8.80;99.90;;;;;;5117107;28;20328;-75
2023/04/29 02:49:22;;;;;;;;;;;8.40;99.90;;;;;;5097955;28;19924;-75
2023/04/29 02:51:50;;;;;;;;;;;8.40;99.90;;;;;;5098089;28;19924;-75
2023/04/29 02:54:16;;;;;;;;;;;8.40;99.90;;;;;;5117026;28;20014;-75
2023/04/29 02:56:42;;;;;;;;;;;8.60;99.90;;;;;;5097986;28;19930;-75
2023/04/29 02:59:08;;;;;;;;;;;8.50;99.90;;;;;;5116240;28;19931;-75
2023/04/29 03:01:34;;;;;;;;;;;8.50;99.90;;;;;;5116059;28;20007;-75
2023/04/29 03:03:59;;;;;;;;;;;8.60;99.90;;;;;;5116468;28;19973;-75
2023/04/29 03:06:26;;;;;;;;;;;8.70;99.90;;;;;;5098927;28;20059;-75
2023/04/29 03:08:52;;;;;;;;;;;8.50;99.90;;;;;;5097421;28;19924;-75
2023/04/29 03:11:23;;;;;;;;;;;8.50;99.90;;;;;;5116111;28;19947;-75
2023/04/29 03:13:49;;;;;;;;;;;8.50;99.90;;;;;;5116585;28;20413;-75
2023/04/29 03:16:15;;;;;;;;;;;8.50;99.90;;;;;;5115792;28;19927;-75
2023/04/29 03:18:44;;;;;;;;;;;8.50;99.90;;;;;;5116132;28;20379;-76
2023/04/29 03:21:10;;;;;;;;;;;8.50;99.90;;;;;;5098137;28;19924;-75
2023/04/29 03:23:38;;;;;;;;;;;8.50;99.90;;;;;;5097483;28;19924;-75
2023/04/29 03:26:03;;;;;;;;;;;8.60;99.90;;;;;;5097762;28;20061;-75
2023/04/29 03:28:29;;;;;;;;;;;8.50;99.90;;;;;;5097958;28;20399;-75
2023/04/29 03:30:55;;;;;;;;;;;8.50;99.90;;;;;;5097086;28;19946;-75
2023/04/29 03:33:21;;;;;;;;;;;8.50;99.90;;;;;;5116313;28;19923;-75
2023/04/29 03:35:46;;;;;;;;;;;8.50;99.90;;;;;;5097773;28;20371;-75
2023/04/29 03:38:12;;;;;;;;;;;8.50;99.90;;;;;;5097270;28;20018;-75
2023/04/29 03:40:37;;;;;;;;;;;9.00;99.90;;;;;;5116322;28;20057;-75
2023/04/29 03:43:03;;;;;;;;;;;8.50;99.90;;;;;;5097329;28;19935;-75
2023/04/29 03:45:29;;;;;;;;;;;8.50;99.90;;;;;;5096279;28;19930;-75
2023/04/29 03:47:55;;;;;;;;;;;8.40;99.90;;;;;;5115803;28;19931;-75
2023/04/29 03:50:20;;;;;;;;;;;8.40;99.90;;;;;;5115857;28;19924;-76
2023/04/29 03:52:46;;;;;;;;;;;8.80;99.90;;;;;;5096936;28;19981;-75
2023/04/29 03:55:11;;;;;;;;;;;8.40;99.90;;;;;;5115964;28;20010;-75
2023/04/29 03:57:37;;;;;;;;;;;8.40;99.90;;;;;;5097270;28;20029;-75
2023/04/29 04:00:03;;;;;;;;;;;9.50;99.90;;;;;;5114835;28;19924;-75
2023/04/29 04:02:29;;;;;;;;;;;8.40;99.90;;;;;;5097559;28;19924;-75
2023/04/29 04:04:55;;;;;;;;;;;8.40;99.90;;;;;;5096218;28;19924;-76
2023/04/29 04:07:20;;;;;;;;;;;8.40;99.90;;;;;;5115441;28;19954;-76
2023/04/29 04:09:46;;;;;;;;;;;8.40;99.90;;;;;;5115758;28;19982;-75
2023/04/29 04:12:11;;;;;;;;;;;8.40;99.90;;;;;;5096434;28;19985;-75
2023/04/29 04:14:37;;;;;;;;;;;9.10;99.90;;;;;;5115727;28;19924;-75
2023/04/29 04:17:02;;;;;;;;;;;8.30;99.90;;;;;;5114776;28;19924;-76
2023/04/29 04:19:29;;;;;;;;;;;8.40;99.90;;;;;;5096227;28;20367;-75
2023/04/29 04:21:55;;;;;;;;;;;8.30;99.90;;;;;;5097120;28;20335;-75
2023/04/29 04:24:20;;;;;;;;;;;8.30;99.90;;;;;;5115180;28;20018;-75
2023/04/29 04:26:46;;;;;;;;;;;8.20;99.90;;;;;;5114437;28;20068;-75
2023/04/29 04:29:11;;;;;;;;;;;8.20;99.90;;;;;;5115012;28;20007;-75
2023/04/29 04:31:37;;;;;;;;;;;8.10;99.90;;;;;;5115157;28;20282;-75
2023/04/29 04:34:02;;;;;;;;;;;8.60;99.90;;;;;;5095833;28;19923;-75
2023/04/29 04:36:28;;;;;;;;;;;8.00;99.90;;;;;;5096645;28;20474;-75
2023/04/29 04:38:53;;;;;;;;;;;8.10;99.90;;;;;;5096670;28;19935;-75
2023/04/29 04:41:19;;;;;;;;;;;7.90;99.90;;;;;;5096298;28;19920;-75
2023/04/29 04:43:45;;;;;;;;;;;8.10;99.90;;;;;;5114142;28;20285;-75
2023/04/29 04:46:14;;;;;;;;;;;7.80;99.90;;;;;;5114733;28;19981;-75
2023/04/29 04:48:40;;;;;;;;;;;7.70;99.90;;;;;;5095561;28;20023;-75
2023/04/29 04:51:06;;;;;;;;;;;7.70;99.90;;;;;;5114615;28;19971;-74
2023/04/29 04:53:32;;;;;;;;;;;7.60;99.90;;;;;;5096344;28;19923;-75
2023/04/29 04:56:01;;;;;;;;;;;7.80;99.90;;;;;;5113538;28;19931;-75
2023/04/29 04:58:26;;;;;;;;;;;7.60;99.90;;;;;;5092753;28;19924;-75
2023/04/29 05:00:52;;;;;;;;;;;7.60;99.90;;;;;;5093930;28;19982;-74
2023/04/29 05:03:17;;;;;;;;;;;7.50;99.90;;;;;;5093080;28;19924;-74
2023/04/29 05:05:43;;;;;;;;;;;7.60;99.90;;;;;;5094128;28;19928;-75
2023/04/29 05:08:09;;;;;;;;;;;7.60;99.90;;;;;;5091519;28;20351;-73
2023/04/29 05:10:37;;;;;;;;;;;7.60;99.90;;;;;;5092635;28;20295;-73
2023/04/29 05:13:03;;;;;;;;;;;7.50;99.90;;;;;;5092238;28;19927;-72
2023/04/29 05:15:28;;;;;;;;;;;7.60;99.90;;;;;;5106675;27;19925;-72
2023/04/29 05:17:54;;;;;;;;;;;7.60;99.90;;;;;;5073173;28;19932;-73
2023/04/29 05:20:20;;;;;;;;;;;7.60;99.90;;;;;;5073647;28;19920;-74
2023/04/29 05:22:45;;;;;;;;;;;7.60;99.90;;;;;;5071745;28;19932;-74
2023/04/29 05:25:11;;;;;;;;;;;7.60;99.90;;;;;;5089770;28;20462;-73
2023/04/29 05:27:37;;;;;;;;;;;7.60;99.90;;;;;;5092237;28;19924;-72
2023/04/29 05:30:02;;;;;;;;;;;7.70;99.90;;;;;;5092373;28;19924;-75
2023/04/29 05:32:28;;;;;;;;;;;7.70;99.90;;;;;;5093671;28;19924;-73
2023/04/29 05:34:53;;;;;;;;;;;8.00;99.90;;;;;;5093007;28;20273;-72
2023/04/29 05:37:19;;;;;;;;;;;7.80;99.90;;;;;;5091379;28;19924;-72
2023/04/29 05:39:45;;;;;;;;;;;7.80;99.90;;;;;;5091995;28;19924;-72
2023/04/29 05:42:10;;;;;;;;;;;8.40;99.90;;;;;;5093318;28;19928;-70
2023/04/29 05:44:36;;;;;;;;;;;7.90;99.90;;;;;;5091480;28;20280;-71
2023/04/29 05:47:01;;;;;;;;;;;7.90;99.90;;;;;;5093256;28;19924;-71
2023/04/29 05:49:27;;;;;;;;;;;8.10;99.90;;;;;;5091653;28;19925;-71
2023/04/29 05:51:52;;;;;;;;;;;8.10;99.90;;;;;;5089141;28;19931;-70
2023/04/29 05:54:18;;;;;;;;;;;8.10;99.90;;;;;;5091108;28;19924;-70
2023/04/29 05:56:43;;;;;;;;;;;8.20;99.90;;;;;;5091976;28;19951;-71
2023/04/29 05:59:09;;;;;;;;;;;8.20;99.90;;;;;;5105908;28;20445;-71
2023/04/29 06:01:34;;;;;;;;;;;9.00;99.90;;;;;;5112342;28;19924;-71
2023/04/29 06:04:00;;;;;;;;;;;8.20;99.90;;;;;;5093351;28;19923;-71
2023/04/29 06:06:25;;;;;;;;;;;8.30;99.90;;;;;;5094582;28;20351;-71
2023/04/29 06:08:52;;;;;;;;;;;8.40;99.90;;;;;;5112625;28;19931;-71
2023/04/29 06:11:17;;;;;;;;;;;8.40;99.90;;;;;;5095143;28;19931;-70
2023/04/29 06:13:43;;;;;;;;;;;8.40;99.90;;;;;;5112364;28;20002;-71
2023/04/29 06:16:09;;;;;;;;;;;8.50;99.90;;;;;;5094108;28;19976;-71
2023/04/29 06:18:35;;;;;;;;;;;8.50;99.90;;;;;;5094544;28;19924;-71
2023/04/29 06:21:00;;;;;;;;;;;8.50;99.90;;;;;;5094400;28;19969;-71
2023/04/29 06:23:26;;;;;;;;;;;8.60;99.90;;;;;;5113443;28;19946;-71
2023/04/29 06:25:51;;;;;;;;;;;9.00;99.90;;;;;;5093557;28;19959;-70
2023/04/29 06:28:17;;;;;;;;;;;8.60;99.90;;;;;;5095075;28;20010;-71
2023/04/29 06:30:44;;;;;;;;;;;8.70;99.90;;;;;;5113380;28;19924;-71
2023/04/29 06:33:10;;;;;;;;;;;9.00;99.90;;;;;;5111756;28;19924;-72
2023/04/29 06:35:38;;;;;;;;;;;8.80;99.90;;;;;;5095072;28;19973;-71
2023/04/29 06:38:03;;;;;;;;;;;8.80;99.90;;;;;;5112759;28;19927;-71
2023/04/29 06:40:29;;;;;;;;;;;8.80;99.90;;;;;;5094398;28;20030;-71
2023/04/29 06:42:55;;;;;;;;;;;9.10;99.90;;;;;;5094737;28;20394;-71
2023/04/29 06:45:21;;;;;;;;;;;9.00;99.90;;;;;;5113128;28;19923;-74
2023/04/29 06:47:47;;;;;;;;;;;9.00;99.90;;;;;;5112094;28;19931;-72
2023/04/29 06:50:12;;;;;;;;;;;9.20;99.90;;;;;;5107503;28;19927;-71
2023/04/29 06:52:41;;;;;;;;;;;9.10;99.90;;;;;;5097266;28;19924;-71
2023/04/29 06:55:07;;;;;;;;;;;9.10;99.90;;;;;;5093218;28;19931;-71
2023/04/29 06:57:32;;;;;;;;;;;9.20;99.90;;;;;;5112267;28;19924;-71
2023/04/29 06:59:58;;;;;;;;;;;9.20;99.90;;;;;;5112219;28;20306;-71
2023/04/29 07:02:23;;;;;;;;;;;9.30;99.90;;;;;;5110958;28;20306;-71
2023/04/29 07:04:49;;;;;;;;;;;9.30;99.90;;;;;;5093962;28;19928;-70
2023/04/29 07:07:15;;;;;;;;;;;9.40;99.90;;;;;;5112603;28;19974;-72
2023/04/29 07:09:41;;;;;;;;;;;9.50;99.90;;;;;;5111821;28;20364;-71
2023/04/29 07:12:06;;;;;;;;;;;9.50;99.90;;;;;;5093433;28;20290;-71
2023/04/29 07:14:32;;;;;;;;;;;9.60;99.90;;;;;;5111941;28;19971;-71
2023/04/29 07:16:57;;;;;;;;;;;9.70;99.90;;;;;;5091729;28;19981;-72
2023/04/29 07:19:23;;;;;;;;;;;9.80;99.90;;;;;;5112617;28;19924;-72
2023/04/29 07:21:48;;;;;;;;;;;9.90;99.90;;;;;;5114785;28;19919;-73
2023/04/29 07:24:14;;;;;;;;;;;10.00;99.90;;;;;;5115559;28;19969;-74
2023/04/29 07:26:41;;;;;;;;;;;10.10;99.90;;;;;;5115753;28;19983;-73
2023/04/29 07:29:07;;;;;;;;;;;10.40;99.90;;;;;;5114231;28;19923;-74
2023/04/29 07:31:33;;;;;;;;;;;10.40;99.90;;;;;;5096984;28;20290;-71
2023/04/29 07:33:58;;;;;;;;;;;10.80;99.90;;;;;;5115157;28;20002;-72
2023/04/29 07:36:24;;;;;;;;;;;11.70;99.90;;;;;;5096602;28;20019;-72
2023/04/29 07:38:50;;;;;;;;;;;12.90;99.90;;;;;;5096656;28;20291;-74
2023/04/29 07:41:15;;;;;;;;;;;14.00;99.90;;;;;;5094377;28;20342;-73
2023/04/29 07:43:41;;;;;;;;;;;15.20;99.90;;;;;;5095723;28;20409;-74
2023/04/29 07:46:06;;;;;;;;;;;16.00;99.90;;;;;;5096243;28;19991;-73
2023/04/29 07:48:38;;;;;;;;;;;16.30;99.90;;;;;;5115459;28;20305;-75
2023/04/29 07:51:07;;;;;;;;;;;17.00;99.90;;;;;;5094853;28;19928;-75
2023/04/29 07:53:33;;;;;;;;;;;17.70;99.90;;;;;;5115522;28;19973;-76
2023/04/29 07:55:58;;;;;;;;;;;18.20;99.90;;;;;;5114732;28;20290;-76
2023/04/29 07:58:24;;;;;;;;;;;18.60;99.70;;;;;;5114515;28;19935;-74
2023/04/29 08:00:49;;;;;;;;;;;18.70;97.80;;;;;;5115198;28;19971;-73
2023/04/29 08:03:15;;;;;;;;;;;18.90;97.20;;;;;;5114052;28;19923;-73
2023/04/29 08:05:42;;;;;;;;;;;19.30;98.00;;;;;;5095940;28;20393;-74
2023/04/29 08:08:07;;;;;;;;;;;19.30;97.20;;;;;;5114728;28;19971;-74
2023/04/29 08:10:36;;;;;;;;;;;19.40;97.00;;;;;;5114900;28;19955;-74
2023/04/29 08:13:02;;;;;;;;;;;19.70;93.90;;;;;;5113783;28;20060;-74
2023/04/29 08:15:28;;;;;;;;;;;20.20;96.60;;;;;;5096884;28;20022;-73
2023/04/29 08:17:54;;;;;;;;;;;20.40;95.80;;;;;;5114584;28;19947;-74
2023/04/29 08:20:19;;;;;;;;;;;20.60;95.50;;;;;;5113350;28;20371;-74
2023/04/29 08:22:46;;;;;;;;;;;20.30;94.00;;;;;;5114876;28;19930;-72
2023/04/29 08:25:11;;;;;;;;;;;20.40;94.20;;;;;;5095266;28;19920;-73
2023/04/29 08:27:37;;;;;;;;;;;20.60;96.30;;;;;;5114598;28;19957;-74
2023/04/29 08:30:05;;;;;;;;;;;20.70;95.00;;;;;;5114041;28;19923;-73
2023/04/29 08:32:31;;;;;;;;;;;21.00;95.80;;;;;;5113515;28;20382;-74
2023/04/29 08:34:56;;;;;;;;;;;20.80;94.40;;;;;;5095903;28;19923;-74
2023/04/29 08:37:22;;;;;;;;;;;20.90;93.70;;;;;;5095688;28;19924;-74
2023/04/29 08:39:47;;;;;;;;;;;20.20;93.10;;;;;;5113736;28;19924;-74
2023/04/29 08:42:13;;;;;;;;;;;20.10;95.50;;;;;;5095916;28;19924;-74
2023/04/29 08:44:39;;;;;;;;;;;19.70;94.80;;;;;;5096180;28;20027;-73
2023/04/29 08:47:05;;;;;;;;;;;19.40;94.70;;;;;;5112948;28;19963;-72
2023/04/29 08:49:32;;;;;;;;;;;19.30;95.40;;;;;;5113858;28;20331;-74
2023/04/29 08:51:58;;;;;;;;;;;19.40;94.20;;;;;;5113865;28;19928;-73
2023/04/29 08:54:23;;;;;;;;;;;19.00;93.10;;;;;;5094978;28;20008;-74
2023/04/29 08:56:50;;;;;;;;;;;19.30;95.40;;;;;;5095645;28;19928;-74
2023/04/29 08:59:16;;;;;;;;;;;19.70;94.80;;;;;;5095769;28;20294;-74
2023/04/29 09:01:42;;;;;;;;;;;20.00;93.80;;;;;;5113054;28;19927;-74
2023/04/29 09:04:23;;;;;;;;;;;20.00;92.80;;;;;;5113558;28;19919;-74
2023/04/29 09:06:48;;;;;;;;;;;19.60;93.20;;;;;;5095309;28;19935;-74
2023/04/29 09:09:14;;;;;;;;;;;19.30;92.50;;;;;;5094421;28;19927;-74
2023/04/29 09:11:40;;;;;;;;;;;19.40;94.70;;;;;;5113702;28;19927;-74
2023/04/29 09:14:07;;;;;;;;;;;19.20;93.70;;;;;;5095097;28;20434;-73
2023/04/29 09:16:34;;;;;;;;;;;19.30;95.80;;;;;;5094682;28;19927;-73
2023/04/29 09:18:59;;;;;;;;;;;19.10;94.80;;;;;;5112978;28;20747;-74
2023/04/29 09:21:25;;;;;;;;;;;19.00;93.60;;;;;;5094497;28;20019;-73
2023/04/29 09:23:58;;;;;;;;;;;19.20;93.50;;;;;;5095237;28;20310;-72
2023/04/29 09:26:24;;;;;;;;;;;19.10;94.80;;;;;;5094697;28;19927;-77
2023/04/29 09:29:04;;;;;;;;;;;18.80;93.90;;;;;;5094113;28;20357;-72
2023/04/29 09:31:30;;;;;;;;;;;18.90;94.70;;;;;;5095557;28;19931;-75
2023/04/29 09:33:57;;;;;;;;;;;19.20;93.30;;;;;;5113344;28;19919;-76
2023/04/29 09:36:38;;;;;;;;;;;19.20;92.10;;;;;;5094481;28;19931;-74
2023/04/29 09:39:22;;;;;;;;;;;19.50;93.20;;;;;;5112584;28;19927;-73
2023/04/29 09:41:53;;;;;;;;;;;19.60;93.10;;;;;;5094750;28;20359;-72
2023/04/29 09:44:21;;;;;;;;;;;20.00;93.50;;;;;;5094369;28;19923;-74
2023/04/29 09:47:01;;;;;;;;;;;19.40;91.00;;;;;;5095518;28;19928;-71
2023/04/29 09:49:39;;;;;;;;;;;19.30;92.70;;;;;;5095077;28;19923;-72
2023/04/29 09:52:09;;;;;;;;;;;19.90;93.10;;;;;;5095055;28;20434;-72
2023/04/29 09:54:35;;;;;;;;;;;20.10;92.50;;;;;;5113467;28;20006;-72
2023/04/29 09:57:03;;;;;;;;;;;20.00;91.30;;;;;;5112701;28;20371;-71
2023/04/29 09:59:29;;;;;;;;;;;20.70;91.90;;;;;;5113317;28;19976;-70
2023/04/29 10:01:55;;;;;;;;;;;20.70;91.70;;;;;;5113530;28;20226;-71
2023/04/29 10:04:22;;;;;;;;;;;20.50;91.80;;;;;;5094160;28;20022;-72
2023/04/29 10:06:50;;;;;;;;;;;20.30;90.10;;;;;;5113708;28;19923;-74
2023/04/29 10:09:16;;;;;;;;;;;20.10;88.60;;;;;;5094399;28;19923;-72
2023/04/29 10:11:45;;;;;;;;;;;20.00;90.70;;;;;;5093826;28;19923;-73
2023/04/29 10:14:12;;;;;;;;;;;20.20;90.00;;;;;;5113049;28;20437;-73
2023/04/29 10:16:43;;;;;;;;;;;20.80;91.70;;;;;;5095081;28;19923;-72
2023/04/29 10:19:10;;;;;;;;;;;21.80;90.00;;;;;;5094123;28;19939;-71
2023/04/29 10:21:36;;;;;;;;;;;21.80;89.90;;;;;;5094772;28;20378;-72
2023/04/29 10:24:02;;;;;;;;;;;22.40;86.50;;;;;;5095181;28;19992;-73
2023/04/29 10:26:28;;;;;;;;;;;22.50;90.30;;;;;;5093091;28;20441;-71
2023/04/29 10:28:54;;;;;;;;;;;22.60;85.50;;;;;;5111298;28;19951;-71
2023/04/29 10:31:21;;;;;;;;;;;22.50;83.30;;;;;;5093728;28;19931;-71
2023/04/29 10:33:47;;;;;;;;;;;22.00;83.60;;;;;;5076461;28;19924;-71
2023/04/29 10:36:13;;;;;;;;;;;21.30;84.20;;;;;;5103424;28;19942;-71
2023/04/29 10:38:40;;;;;;;;;;;21.40;90.00;;;;;;5094260;28;20283;-70
2023/04/29 10:41:09;;;;;;;;;;;21.20;89.90;;;;;;5094277;28;19924;-70
2023/04/29 10:43:34;;;;;;;;;;;20.70;90.40;;;;;;5112898;28;20379;-73
2023/04/29 10:46:15;;;;;;;;;;;21.00;91.90;;;;;;5111728;28;19930;-70
2023/04/29 10:48:44;;;;;;;;;;;20.90;90.50;;;;;;5094136;28;19931;-70
2023/04/29 10:51:10;;;;;;;;;;;20.70;90.70;;;;;;5094846;28;19924;-71
2023/04/29 10:53:55;;;;;;;;;;;20.80;91.10;;;;;;5112923;28;19973;-70
2023/04/29 10:56:21;;;;;;;;;;;20.80;91.70;;;;;;5098722;28;20329;-70
2023/04/29 10:58:46;;;;;;;;;;;21.10;91.10;;;;;;5098398;28;19931;-73
2023/04/29 11:01:13;;;;;;;;;;;21.00;91.30;;;;;;5111761;28;19930;-71
2023/04/29 11:03:48;;;;;;;;;;;21.00;90.50;;;;;;5095888;28;19930;-71
2023/04/29 11:06:16;;;;;;;;;;;20.70;90.70;;;;;;5098093;28;19996;-73
2023/04/29 11:08:42;;;;;;;;;;;20.80;90.50;;;;;;5097000;28;19923;-69
2023/04/29 11:11:08;;;;;;;;;;;20.80;90.70;;;;;;5116619;28;20480;-71
2023/04/29 11:13:37;;;;;;;;;;;20.90;90.70;;;;;;5116860;28;19924;-71
2023/04/29 11:16:03;;;;;;;;;;;20.60;90.50;;;;;;5115368;28;19923;-70
2023/04/29 11:18:28;;;;;;;;;;;20.70;90.80;;;;;;5098193;28;19931;-70
2023/04/29 11:21:03;;;;;;;;;;;21.20;91.20;;;;;;5112602;28;19950;-70
2023/04/29 11:23:29;;;;;;;;;;;21.10;91.10;;;;;;5114960;28;19924;-70
2023/04/29 11:25:55;;;;;;;;;;;21.20;90.30;;;;;;5115583;28;19935;-71
2023/04/29 11:28:21;;;;;;;;;;;21.10;91.20;;;;;;5097297;28;19924;-71
2023/04/29 11:30:48;;;;;;;;;;;21.10;91.60;;;;;;5097225;28;20002;-71
2023/04/29 11:33:14;;;;;;;;;;;21.10;90.90;;;;;;5115477;28;19980;-71
2023/04/29 11:35:40;;;;;;;;;;;21.00;90.40;;;;;;5095674;28;20019;-71
2023/04/29 11:38:06;;;;;;;;;;;21.30;90.30;;;;;;5115098;28;19931;-72
2023/04/29 11:40:32;;;;;;;;;;;21.30;88.10;;;;;;5115482;28;19953;-72
2023/04/29 11:42:57;;;;;;;;;;;21.10;82.80;;;;;;5113298;28;19977;-71
2023/04/29 11:45:23;;;;;;;;;;;21.00;89.80;;;;;;5095268;28;19976;-72
2023/04/29 11:47:49;;;;;;;;;;;21.20;88.50;;;;;;5097139;28;19924;-71
2023/04/29 11:50:16;;;;;;;;;;;21.30;85.00;;;;;;5114445;28;19934;-71
2023/04/29 11:52:43;;;;;;;;;;;21.10;85.80;;;;;;5115248;28;19924;-72
2023/04/29 11:55:09;;;;;;;;;;;21.30;84.60;;;;;;5096563;28;19924;-72
2023/04/29 11:57:35;;;;;;;;;;;21.20;83.70;;;;;;5114068;28;19934;-72
2023/04/29 12:00:00;;;;;;;;;;;21.30;82.50;;;;;;5113804;28;20016;-71
2023/04/29 12:02:30;;;;;;;;;;;21.50;86.30;;;;;;5096307;28;19924;-73
2023/04/29 12:04:56;;;;;;;;;;;21.50;82.60;;;;;;5094165;28;19931;-72
2023/04/29 12:07:22;;;;;;;;;;;21.20;80.00;;;;;;5113761;28;19928;-71
2023/04/29 12:09:48;;;;;;;;;;;21.10;80.50;;;;;;5096535;28;20303;-73
2023/04/29 12:12:13;;;;;;;;;;;21.60;81.10;;;;;;5113823;28;20003;-72
2023/04/29 12:14:40;;;;;;;;;;;21.30;79.60;;;;;;5096969;28;20056;-74
2023/04/29 12:17:06;;;;;;;;;;;21.20;84.20;;;;;;5115127;28;19978;-80
2023/04/29 12:19:31;;;;;;;;;;;21.10;78.30;;;;;;5076434;28;19920;-72
2023/04/29 12:21:58;;;;;;;;;;;20.90;78.50;;;;;;5083010;28;20302;-71
2023/04/29 12:24:23;;;;;;;;;;;20.40;76.40;;;;;;5114532;28;19924;-71
2023/04/29 12:26:49;;;;;;;;;;;20.20;77.90;;;;;;5095941;28;19927;-72
2023/04/29 12:29:15;;;;;;;;;;;20.70;81.30;;;;;;5096295;28;19928;-72
2023/04/29 12:31:41;;;;;;;;;;;21.10;80.00;;;;;;5096441;28;19953;-72
2023/04/29 12:34:06;;;;;;;;;;;20.90;76.90;;;;;;5114293;28;19923;-74
2023/04/29 12:36:32;;;;;;;;;;;21.00;79.80;;;;;;5113895;28;19967;-73
2023/04/29 12:38:57;;;;;;;;;;;20.90;75.10;;;;;;5094934;28;20290;-72
2023/04/29 12:41:39;;;;;;;;;;;21.00;76.60;;;;;;5096833;28;19924;-73
2023/04/29 12:44:05;;;;;;;;;;;20.30;76.80;;;;;;5095359;28;19927;-74
2023/04/29 12:46:35;;;;;;;;;;;19.50;76.00;;;;;;5095505;28;20369;-73
2023/04/29 12:49:01;;;;;;;;;;;19.10;77.80;;;;;;5096707;28;19923;-74
2023/04/29 12:51:27;;;;;;;;;;;19.30;76.60;;;;;;5096436;28;19927;-74
2023/04/29 12:53:52;;;;;;;;;;;19.40;78.20;;;;;;5095368;28;19928;-74
2023/04/29 12:56:18;;;;;;;;;;;19.50;77.10;;;;;;5096566;28;19931;-73
2023/04/29 12:58:43;;;;;;;;;;;19.20;73.20;;;;;;5114400;28;19935;-74
2023/04/29 13:01:09;;;;;;;;;;;19.10;74.80;;;;;;5095246;28;19924;-74
2023/04/29 13:03:35;;;;;;;;;;;19.00;77.90;;;;;;5096507;28;19920;-72
2023/04/29 13:06:01;;;;;;;;;;;18.80;75.60;;;;;;5114308;28;20061;-72
2023/04/29 13:08:26;;;;;;;;;;;18.60;78.90;;;;;;5095430;28;19974;-72
2023/04/29 13:10:52;;;;;;;;;;;18.80;82.10;;;;;;5096106;28;19971;-72
2023/04/29 13:13:18;;;;;;;;;;;18.40;82.50;;;;;;5096369;28;19923;-73
2023/04/29 13:15:43;;;;;;;;;;;18.50;84.10;;;;;;5113564;28;19924;-73
2023/04/29 13:18:09;;;;;;;;;;;18.50;83.40;;;;;;5094777;28;20268;-72
2023/04/29 13:20:34;;;;;;;;;;;18.70;83.70;;;;;;5113425;28;19950;-73
2023/04/29 13:23:00;;;;;;;;;;;18.20;84.30;;;;;;5095691;28;20011;-72
2023/04/29 13:25:25;;;;;;;;;;;18.00;86.70;;;;;;5114218;28;20031;-73
2023/04/29 13:27:51;;;;;;;;;;;17.80;88.80;;;;;;5113155;28;20692;-73
2023/04/29 13:30:16;;;;;;;;;;;17.80;86.00;;;;;;5113875;28;19931;-73
2023/04/29 13:32:43;;;;;;;;;;;18.00;88.60;;;;;;5096003;28;19924;-75
2023/04/29 13:35:08;;;;;;;;;;;17.90;87.30;;;;;;5113271;28;19924;-74
2023/04/29 13:37:34;;;;;;;;;;;17.70;86.00;;;;;;5114147;28;19980;-71
2023/04/29 13:39:59;;;;;;;;;;;17.50;87.70;;;;;;5113920;28;20397;-72
2023/04/29 13:42:25;;;;;;;;;;;17.60;86.30;;;;;;5113271;28;19930;-72
2023/04/29 13:44:52;;;;;;;;;;;17.30;90.00;;;;;;5095230;28;19996;-71
2023/04/29 13:47:18;;;;;;;;;;;17.60;89.20;;;;;;5095697;28;20355;-72
2023/04/29 13:49:43;;;;;;;;;;;17.80;89.20;;;;;;5094763;28;19977;-72
2023/04/29 13:52:09;;;;;;;;;;;17.70;87.50;;;;;;5109997;28;19931;-73
2023/04/29 13:54:35;;;;;;;;;;;18.00;88.90;;;;;;5075248;28;19970;-73
2023/04/29 13:57:04;;;;;;;;;;;17.80;88.20;;;;;;5075017;28;19963;-73
2023/04/29 13:59:33;;;;;;;;;;;17.70;90.30;;;;;;5084745;28;19924;-74
2023/04/29 14:01:58;;;;;;;;;;;17.60;90.50;;;;;;5091859;28;19927;-74
2023/04/29 14:04:24;;;;;;;;;;;17.30;91.90;;;;;;5092976;28;19980;-75
2023/04/29 14:06:50;;;;;;;;;;;17.20;91.20;;;;;;5113174;28;19962;-75
2023/04/29 14:09:17;;;;;;;;;;;17.20;92.00;;;;;;5094533;28;19978;-75
2023/04/29 14:11:42;;;;;;;;;;;17.10;92.30;;;;;;5093727;28;19924;-74
2023/04/29 14:14:08;;;;;;;;;;;16.90;93.80;;;;;;5094111;28;20260;-75
2023/04/29 14:16:33;;;;;;;;;;;16.80;92.90;;;;;;5094752;28;19924;-74
2023/04/29 14:18:59;;;;;;;;;;;17.00;92.80;;;;;;5093513;28;19972;-74
2023/04/29 14:21:26;;;;;;;;;;;17.10;92.70;;;;;;5113040;28;19977;-75